createdAt,value
2023-04-12T00:00:11.629Z,6.17
2023-04-12T00:02:40.168Z,4.70
2023-04-12T00:05:09.765Z,4.77
2023-04-12T00:07:38.457Z,5.23
2023-04-12T00:10:09.595Z,4.60
2023-04-12T00:12:36.727Z,6.03
2023-04-12T00:15:04.843Z,5.73
2023-04-12T00:17:33.275Z,5.83
2023-04-12T00:20:00.405Z,5.93
2023-04-12T00:22:28.577Z,4.87
2023-04-12T00:24:55.748Z,5.70
2023-04-12T00:27:22.806Z,6.23
2023-04-12T00:29:49.758Z,6.37
2023-04-12T00:32:16.808Z,6.80
2023-04-12T00:34:43.778Z,7.73
2023-04-12T00:37:10.976Z,7.33
2023-04-12T00:39:39.757Z,5.47
2023-04-12T00:42:07.142Z,5.97
2023-04-12T00:44:34.498Z,5.73
2023-04-12T00:47:04.086Z,5.33
2023-04-12T00:49:31.964Z,4.73
2023-04-12T00:52:03.443Z,6.00
2023-04-12T00:54:33.504Z,4.60
2023-04-12T00:57:01.921Z,4.90
2023-04-12T00:59:29.234Z,4.00
2023-04-12T01:01:57.747Z,3.83
2023-04-12T01:04:26.557Z,5.43
2023-04-12T01:07:05.335Z,4.70
2023-04-12T01:09:56.926Z,3.63
2023-04-12T01:12:36.242Z,4.37
2023-04-12T01:15:13.291Z,4.53
2023-04-12T01:18:06.071Z,5.17
2023-04-12T01:20:39.426Z,4.60
2023-04-12T01:23:25.220Z,5.43
2023-04-12T01:26:09.680Z,4.53
2023-04-12T01:28:41.319Z,5.57
2023-04-12T01:31:09.422Z,5.80
2023-04-12T01:33:39.691Z,5.33
2023-04-12T01:36:12.540Z,5.07
2023-04-12T01:38:43.286Z,5.03
2023-04-12T01:41:12.750Z,5.03
2023-04-12T01:43:47.054Z,4.50
2023-04-12T01:46:17.072Z,5.07
2023-04-12T01:48:50.916Z,4.70
2023-04-12T01:51:33.056Z,5.17
2023-04-12T01:54:11.279Z,5.07
2023-04-12T01:56:41.625Z,4.60
2023-04-12T01:59:11.043Z,5.23
2023-04-12T02:01:38.362Z,5.77
2023-04-12T02:04:08.400Z,6.73
2023-04-12T02:06:36.158Z,6.53
2023-04-12T02:09:04.984Z,4.37
2023-04-12T02:11:33.777Z,4.57
2023-04-12T02:14:00.821Z,4.93
2023-04-12T02:16:29.599Z,3.80
2023-04-12T02:18:57.568Z,4.83
2023-04-12T02:21:26.502Z,5.47
2023-04-12T02:23:54.602Z,6.00
2023-04-12T02:26:23.526Z,8.50
2023-04-12T02:28:52.789Z,5.37
2023-04-12T02:31:20.381Z,5.87
2023-04-12T02:33:49.348Z,3.67
2023-04-12T02:36:16.753Z,5.60
2023-04-12T02:38:43.714Z,5.63
2023-04-12T02:41:20.621Z,6.20
2023-04-12T02:43:48.854Z,6.77
2023-04-12T02:46:22.895Z,4.70
2023-04-12T02:48:55.371Z,7.43
2023-04-12T02:51:28.184Z,5.23
2023-04-12T02:53:55.664Z,6.67
2023-04-12T02:56:25.682Z,4.97
2023-04-12T02:59:01.832Z,7.47
2023-04-12T03:01:40.750Z,5.03
2023-04-12T03:04:22.892Z,5.87
2023-04-12T03:06:58.861Z,5.00
2023-04-12T03:09:44.742Z,6.73
2023-04-12T03:12:14.539Z,6.37
2023-04-12T03:14:49.776Z,5.40
2023-04-12T03:17:17.855Z,5.07
2023-04-12T03:19:46.419Z,4.73
2023-04-12T03:22:16.051Z,5.07
2023-04-12T03:24:47.122Z,5.70
2023-04-12T03:27:16.843Z,5.17
2023-04-12T03:29:44.300Z,6.30
2023-04-12T03:32:11.372Z,6.00
2023-04-12T03:34:38.845Z,6.13
2023-04-12T03:37:13.580Z,5.73
2023-04-12T03:51:07.842Z,4.57
2023-04-12T03:53:38.877Z,4.50
2023-04-12T03:56:08.258Z,4.83
2023-04-12T03:58:36.182Z,6.33
2023-04-12T04:01:06.144Z,5.57
2023-04-12T04:03:35.435Z,5.20
2023-04-12T04:06:12.110Z,5.07
2023-04-12T04:08:39.372Z,6.37
2023-04-12T04:11:08.514Z,4.70
2023-04-12T04:13:40.882Z,4.67
2023-04-12T04:16:11.117Z,5.27
2023-04-12T04:18:40.492Z,5.00
2023-04-12T04:21:10.534Z,5.63
2023-04-12T04:23:38.967Z,5.30
2023-04-12T04:26:11.029Z,6.10
2023-04-12T04:28:47.572Z,5.57
2023-04-12T04:31:18.553Z,5.93
2023-04-12T04:33:49.656Z,5.60
2023-04-12T04:36:18.361Z,6.53
2023-04-12T04:38:51.035Z,5.80
2023-04-12T04:41:34.719Z,8.83
2023-04-12T04:44:04.741Z,6.73
2023-04-12T04:46:36.931Z,108.90
2023-04-12T04:49:05.473Z,84.13
2023-04-12T04:51:32.910Z,38.57
2023-04-12T04:54:03.367Z,34.87
2023-04-12T04:56:31.180Z,35.47
2023-04-12T04:58:58.737Z,28.47
2023-04-12T05:01:28.723Z,14.03
2023-04-12T05:03:58.515Z,10.43
2023-04-12T05:06:27.762Z,8.93
2023-04-12T05:08:57.097Z,8.03
2023-04-12T05:11:24.513Z,7.27
2023-04-12T05:13:51.652Z,8.80
2023-04-12T05:16:19.347Z,7.17
2023-04-12T05:18:47.161Z,8.07
2023-04-12T05:21:14.268Z,8.77
2023-04-12T05:23:46.195Z,7.83
2023-04-12T05:26:14.040Z,7.90
2023-04-12T05:28:45.318Z,7.97
2023-04-12T05:31:13.431Z,7.43
2023-04-12T05:33:40.617Z,7.77
2023-04-12T05:36:10.996Z,7.13
2023-04-12T05:38:38.227Z,7.80
2023-04-12T05:41:11.206Z,8.90
2023-04-12T05:43:39.564Z,6.57
2023-04-12T05:46:08.748Z,9.50
2023-04-12T05:48:37.166Z,8.43
2023-04-12T05:51:05.421Z,9.43
2023-04-12T05:53:33.129Z,7.33
2023-04-12T05:56:03.482Z,9.27
2023-04-12T05:58:30.733Z,9.63
2023-04-12T06:00:59.050Z,7.97
2023-04-12T06:03:26.871Z,8.37
2023-04-12T06:05:59.131Z,10.93
2023-04-12T06:08:29.784Z,8.43
2023-04-12T06:10:57.178Z,7.20
2023-04-12T06:13:26.191Z,7.97
2023-04-12T06:15:53.355Z,8.87
2023-04-12T06:18:20.960Z,7.33
2023-04-12T06:20:47.909Z,8.87
2023-04-12T06:23:15.160Z,8.70
2023-04-12T06:25:42.531Z,8.07
2023-04-12T06:28:10.608Z,9.83
2023-04-12T06:30:44.313Z,9.57
2023-04-12T06:35:39.929Z,9.27
2023-04-12T06:38:07.672Z,9.37
2023-04-12T06:40:34.802Z,9.13
2023-04-12T06:43:01.906Z,9.37
2023-04-12T06:45:28.920Z,10.77
2023-04-12T06:47:57.186Z,9.60
2023-04-12T06:50:26.252Z,8.80
2023-04-12T06:52:53.270Z,11.77
2023-04-12T06:55:20.578Z,10.60
2023-04-12T06:57:47.653Z,11.60
2023-04-12T07:00:14.981Z,8.63
2023-04-12T07:02:42.265Z,12.87
2023-04-12T07:05:09.737Z,9.13
2023-04-12T07:07:36.747Z,11.07
2023-04-12T07:10:04.547Z,9.90
2023-04-12T07:12:31.681Z,9.27
2023-04-12T07:14:58.770Z,9.70
2023-04-12T07:17:28.836Z,9.83
2023-04-12T07:19:56.891Z,11.60
2023-04-12T07:22:24.920Z,9.40
2023-04-12T07:24:52.106Z,9.03
2023-04-12T07:27:19.196Z,10.03
2023-04-12T07:29:46.610Z,12.07
2023-04-12T07:32:13.716Z,8.87
2023-04-12T07:34:40.787Z,12.90
2023-04-12T07:37:07.863Z,9.63
2023-04-12T07:39:35.067Z,9.07
2023-04-12T07:42:02.255Z,11.87
2023-04-12T07:44:31.912Z,9.23
2023-04-12T07:46:58.995Z,8.47
2023-04-12T07:49:26.099Z,12.00
2023-04-12T07:51:53.220Z,14.13
2023-04-12T07:54:21.700Z,11.03
2023-04-12T07:57:03.678Z,20.40
2023-04-12T07:59:31.870Z,16.50
2023-04-12T08:01:59.017Z,11.57
2023-04-12T08:04:28.349Z,11.30
2023-04-12T08:06:55.954Z,9.53
2023-04-12T08:09:23.678Z,10.47
2023-04-12T08:11:50.892Z,9.40
2023-04-12T08:14:17.961Z,15.90
2023-04-12T08:16:45.699Z,9.53
2023-04-12T08:19:12.698Z,9.40
2023-04-12T08:21:39.903Z,10.50
2023-04-12T08:24:07.247Z,20.30
2023-04-12T08:26:34.494Z,11.63
2023-04-12T08:29:01.920Z,9.83
2023-04-12T08:31:29.065Z,8.43
2023-04-12T08:33:56.801Z,9.37
2023-04-12T08:36:24.063Z,9.50
2023-04-12T08:38:52.682Z,8.73
2023-04-12T08:41:20.442Z,6.97
2023-04-12T08:43:48.822Z,8.60
2023-04-12T08:46:17.176Z,9.13
2023-04-12T08:48:49.770Z,8.07
2023-04-12T08:51:18.340Z,9.10
2023-04-12T08:53:45.556Z,9.53
2023-04-12T08:56:13.532Z,7.67
2023-04-12T08:58:42.382Z,15.10
2023-04-12T09:01:14.262Z,9.40
2023-04-12T09:03:43.120Z,8.70
2023-04-12T09:06:11.424Z,7.20
2023-04-12T09:08:50.682Z,7.67
2023-04-12T09:11:28.305Z,7.50
2023-04-12T09:13:56.951Z,7.27
2023-04-12T09:16:42.871Z,6.40
2023-04-12T09:19:10.214Z,8.40
2023-04-12T09:21:51.875Z,7.40
2023-04-12T09:24:19.054Z,8.87
2023-04-12T09:26:46.586Z,7.63
2023-04-12T09:29:25.379Z,6.90
2023-04-12T09:32:08.134Z,8.00
2023-04-12T09:34:36.282Z,6.77
2023-04-12T09:37:18.413Z,7.90
2023-04-12T09:39:45.428Z,6.50
2023-04-12T09:42:29.721Z,8.20
2023-04-12T09:45:01.650Z,6.90
2023-04-12T09:47:41.396Z,6.80
2023-04-12T09:50:09.868Z,8.43
2023-04-12T09:52:40.428Z,7.37
2023-04-12T09:55:10.746Z,6.90
2023-04-12T09:57:41.096Z,7.50
2023-04-12T10:00:12.906Z,7.70
2023-04-12T10:02:44.486Z,8.00
2023-04-12T10:05:14.436Z,5.53
2023-04-12T10:07:44.759Z,7.60
2023-04-12T10:10:16.684Z,6.93
2023-04-12T10:12:45.832Z,7.87
2023-04-12T10:15:17.714Z,7.67
2023-04-12T10:17:49.830Z,7.47
2023-04-12T10:20:18.800Z,7.43
2023-04-12T10:22:53.324Z,18.73
2023-04-12T10:25:25.874Z,9.97
2023-04-12T10:27:53.733Z,8.37
2023-04-12T10:30:38.712Z,7.77
2023-04-12T10:33:05.952Z,8.67
2023-04-12T10:35:53.611Z,7.57
2023-04-12T10:38:21.824Z,6.80
2023-04-12T10:41:21.789Z,9.10
2023-04-12T10:43:50.832Z,7.20
2023-04-12T10:46:37.537Z,9.80
2023-04-12T10:49:15.345Z,7.43
2023-04-12T10:52:02.730Z,8.20
2023-04-12T10:54:30.219Z,7.07
2023-04-12T10:56:57.628Z,8.50
2023-04-12T10:59:51.084Z,7.03
2023-04-12T11:02:18.502Z,6.67
2023-04-12T11:05:11.669Z,6.80
2023-04-12T11:08:12.531Z,9.70
2023-04-12T11:10:39.902Z,8.20
2023-04-12T11:13:09.809Z,7.67
2023-04-12T11:15:40.082Z,10.33
2023-04-12T11:18:12.585Z,9.20
2023-04-12T11:20:41.028Z,8.20
2023-04-12T11:23:10.706Z,10.87
2023-04-12T11:25:38.840Z,94.73
2023-04-12T11:28:17.285Z,105.53
2023-04-12T11:30:55.975Z,12.67
2023-04-12T11:33:39.793Z,9.80
2023-04-12T11:36:09.326Z,10.20
2023-04-12T11:38:38.256Z,11.00
2023-04-12T11:41:08.161Z,9.93
2023-04-12T11:43:36.799Z,11.50
2023-04-12T11:46:04.350Z,9.30
2023-04-12T11:48:32.547Z,11.37
2023-04-12T11:51:10.418Z,8.17
2023-04-12T11:53:39.622Z,9.20
2023-04-12T11:56:10.319Z,8.47
2023-04-12T11:58:38.602Z,18.87
2023-04-12T12:01:05.920Z,10.23
2023-04-12T12:03:33.113Z,14.90
2023-04-12T12:06:00.756Z,25.00
2023-04-12T12:08:28.060Z,16.33
2023-04-12T12:11:06.286Z,25.30
2023-04-12T12:13:48.546Z,13.80
2023-04-12T12:16:17.507Z,21.87
2023-04-12T12:18:46.382Z,19.07
2023-04-12T12:21:14.818Z,10.63
2023-04-12T12:23:46.198Z,26.17
2023-04-12T12:26:22.574Z,12.97
2023-04-12T12:28:51.725Z,12.33
2023-04-12T12:31:24.082Z,17.73
2023-04-12T12:33:59.106Z,14.33
2023-04-12T12:36:33.779Z,12.97
2023-04-12T12:39:19.089Z,11.23
2023-04-12T12:41:58.853Z,11.97
2023-04-12T12:44:25.937Z,9.60
2023-04-12T12:46:58.700Z,10.57
2023-04-12T12:49:39.095Z,15.37
2023-04-12T12:52:06.356Z,12.30
2023-04-12T12:54:41.193Z,10.30
2023-04-12T12:57:08.951Z,9.17
2023-04-12T12:59:36.050Z,8.87
2023-04-12T13:02:03.245Z,10.87
2023-04-12T13:04:30.574Z,9.27
2023-04-12T13:06:58.078Z,10.07
2023-04-12T13:09:25.098Z,9.53
2023-04-12T13:11:52.552Z,13.77
2023-04-12T13:14:19.458Z,13.20
2023-04-12T13:16:48.619Z,10.97
2023-04-12T13:19:16.917Z,11.23
2023-04-12T13:21:43.935Z,7.80
2023-04-12T13:24:11.410Z,8.67
2023-04-12T13:26:38.444Z,8.70
2023-04-12T13:29:05.583Z,9.03
2023-04-12T13:31:32.591Z,8.50
2023-04-12T13:33:59.632Z,9.17
2023-04-12T13:36:27.307Z,8.17
2023-04-12T13:38:54.368Z,8.07
2023-04-12T13:41:21.487Z,8.07
2023-04-12T13:43:48.564Z,7.60
2023-04-12T13:46:15.601Z,17.43
2023-04-12T13:48:42.919Z,8.30
2023-04-12T13:51:10.616Z,8.73
2023-04-12T13:53:37.566Z,12.10
2023-04-12T13:56:05.033Z,9.93
2023-04-12T13:58:32.014Z,9.00
2023-04-12T14:01:00.612Z,9.03
2023-04-12T14:03:27.861Z,13.33
2023-04-12T14:05:55.562Z,7.87
2023-04-12T14:08:22.522Z,8.00
2023-04-12T14:10:49.828Z,9.80
2023-04-12T14:13:16.908Z,8.90
2023-04-12T14:15:43.897Z,8.77
2023-04-12T14:18:10.916Z,8.33
2023-04-12T14:20:37.915Z,7.93
2023-04-12T14:23:07.767Z,8.10
2023-04-12T14:25:37.451Z,12.33
2023-04-12T14:28:04.425Z,7.60
2023-04-12T14:30:31.537Z,11.50
2023-04-12T14:32:58.678Z,8.43
2023-04-12T14:35:25.820Z,9.57
2023-04-12T14:37:53.373Z,9.03
2023-04-12T14:40:20.680Z,8.63
2023-04-12T14:42:47.720Z,8.00
2023-04-12T14:45:15.716Z,7.60
2023-04-12T14:47:42.786Z,9.03
2023-04-12T14:50:10.089Z,7.70
2023-04-12T14:52:37.235Z,8.03
2023-04-12T14:55:04.899Z,8.33
2023-04-12T14:57:32.892Z,8.50
2023-04-12T15:00:00.266Z,8.40
2023-04-12T15:02:28.147Z,8.20
2023-04-12T15:04:55.674Z,9.13
2023-04-12T15:07:22.848Z,8.40
2023-04-12T15:09:49.871Z,14.00
2023-04-12T15:12:17.255Z,9.57
2023-04-12T15:14:44.342Z,9.37
2023-04-12T15:17:11.269Z,14.63
2023-04-12T15:19:38.265Z,21.00
2023-04-12T15:22:05.250Z,24.47
2023-04-12T15:24:33.814Z,19.40
2023-04-12T15:27:02.746Z,9.30
2023-04-12T15:29:31.446Z,8.53
2023-04-12T15:31:58.484Z,8.63
2023-04-12T15:34:25.997Z,9.50
2023-04-12T15:36:53.544Z,9.40
2023-04-12T15:39:21.315Z,9.07
2023-04-12T15:41:48.392Z,8.27
2023-04-12T15:44:15.431Z,12.27
2023-04-12T15:46:43.157Z,7.27
2023-04-12T15:49:11.184Z,8.70
2023-04-12T15:51:38.609Z,9.20
2023-04-12T15:54:06.258Z,7.97
2023-04-12T15:56:34.703Z,8.37
2023-04-12T15:59:02.054Z,8.03
2023-04-12T16:01:29.236Z,9.10
2023-04-12T16:03:56.613Z,10.23
2023-04-12T16:06:25.339Z,8.40
2023-04-12T16:08:54.889Z,9.00
2023-04-12T16:11:26.548Z,9.93
2023-04-12T16:13:54.754Z,8.97
2023-04-12T16:16:23.285Z,11.17
2023-04-12T16:18:51.630Z,8.50
2023-04-12T16:21:21.281Z,10.03
2023-04-12T16:23:53.180Z,8.97
2023-04-12T16:26:22.197Z,9.50
2023-04-12T16:28:52.527Z,8.50
2023-04-12T16:31:22.952Z,8.40
2023-04-12T16:33:51.262Z,8.10
2023-04-12T16:36:18.651Z,8.87
2023-04-12T16:38:45.913Z,8.07
2023-04-12T16:41:13.065Z,7.77
2023-04-12T16:43:41.036Z,11.17
2023-04-12T16:46:09.638Z,8.50
2023-04-12T16:48:41.232Z,9.60
2023-04-12T16:51:08.386Z,8.47
2023-04-12T16:53:36.560Z,9.77
2023-04-12T16:56:04.704Z,8.07
2023-04-12T16:58:33.033Z,9.57
2023-04-12T17:01:00.149Z,13.63
2023-04-12T17:03:27.674Z,9.03
2023-04-12T17:05:54.863Z,12.30
2023-04-12T17:08:22.721Z,9.83
2023-04-12T17:10:49.834Z,9.70
2023-04-12T17:13:19.502Z,8.33
2023-04-12T17:15:49.966Z,8.70
2023-04-12T17:18:17.140Z,8.63
2023-04-12T17:20:44.443Z,18.03
2023-04-12T17:23:11.910Z,9.03
2023-04-12T17:25:39.656Z,9.03
2023-04-12T17:28:08.572Z,8.93
2023-04-12T17:30:35.635Z,9.03
2023-04-12T17:33:03.224Z,8.67
2023-04-12T17:35:30.484Z,8.93
2023-04-12T17:37:57.612Z,15.43
2023-04-12T17:40:24.690Z,10.17
2023-04-12T17:42:51.655Z,9.00
2023-04-12T17:45:21.733Z,9.87
2023-04-12T17:47:49.074Z,9.60
2023-04-12T17:50:16.472Z,9.00
2023-04-12T17:52:44.493Z,8.43
2023-04-12T17:55:12.854Z,9.13
2023-04-12T17:57:40.165Z,9.27
2023-04-12T18:00:14.710Z,8.37
2023-04-12T18:02:44.007Z,8.97
2023-04-12T18:05:11.508Z,8.27
2023-04-12T18:07:40.084Z,8.80
2023-04-12T18:10:09.382Z,8.50
2023-04-12T18:12:37.454Z,10.00
2023-04-12T18:15:08.244Z,8.43
2023-04-12T18:17:35.371Z,8.77
2023-04-12T18:20:03.216Z,9.47
2023-04-12T18:22:30.586Z,9.63
2023-04-12T18:24:57.572Z,7.80
2023-04-12T18:27:24.704Z,8.70
2023-04-12T18:29:52.048Z,9.97
2023-04-12T18:32:19.071Z,9.30
2023-04-12T18:34:46.332Z,8.13
2023-04-12T18:37:13.323Z,7.37
2023-04-12T18:39:43.265Z,8.83
2023-04-12T18:42:10.458Z,10.47
2023-04-12T18:44:38.029Z,10.07
2023-04-12T18:47:05.431Z,9.30
2023-04-12T18:49:32.706Z,9.90
2023-04-12T18:51:59.689Z,9.87
2023-04-12T18:54:30.273Z,9.40
2023-04-12T18:57:03.458Z,8.97
2023-04-12T18:59:31.193Z,9.53
2023-04-12T19:01:58.325Z,8.23
2023-04-12T19:04:25.453Z,9.03
2023-04-12T19:06:53.261Z,7.70
2023-04-12T19:09:20.631Z,7.70
2023-04-12T19:11:47.824Z,7.23
2023-04-12T19:14:14.871Z,7.43
2023-04-12T19:16:42.028Z,8.23
2023-04-12T19:19:09.060Z,8.43
2023-04-12T19:21:36.418Z,7.73
2023-04-12T19:24:03.605Z,7.60
2023-04-12T19:26:32.052Z,8.20
2023-04-12T19:28:59.349Z,8.90
2023-04-12T19:31:26.583Z,7.87
2023-04-12T19:33:57.450Z,8.20
2023-04-12T19:36:25.234Z,7.60
2023-04-12T19:38:55.666Z,7.53
2023-04-12T19:41:23.773Z,8.70
2023-04-12T19:43:51.206Z,10.63
2023-04-12T19:46:18.340Z,8.20
2023-04-12T19:48:46.412Z,8.80
2023-04-12T19:51:15.367Z,8.83
2023-04-12T19:53:42.731Z,8.90
2023-04-12T19:56:09.837Z,8.87
2023-04-12T19:58:37.582Z,8.10
2023-04-12T20:01:04.890Z,7.57
2023-04-12T20:03:32.032Z,8.23
2023-04-12T20:05:59.303Z,7.40
2023-04-12T20:08:28.514Z,8.47
2023-04-12T20:10:56.209Z,7.80
2023-04-12T20:13:23.317Z,7.40
2023-04-12T20:15:51.090Z,6.30
2023-04-12T20:18:18.288Z,6.37
2023-04-12T20:20:45.778Z,5.87
2023-04-12T20:23:13.701Z,6.00
2023-04-12T20:25:41.697Z,6.60
2023-04-12T20:28:09.434Z,6.13
2023-04-12T20:30:36.905Z,5.03
2023-04-12T20:33:04.271Z,6.63
2023-04-12T20:35:31.506Z,4.23
2023-04-12T20:37:59.574Z,5.07
2023-04-12T20:40:29.740Z,4.93
2023-04-12T20:42:57.111Z,4.60
2023-04-12T20:45:24.256Z,5.67
2023-04-12T20:47:51.431Z,4.63
2023-04-12T20:50:22.564Z,3.57
2023-04-12T20:52:52.182Z,3.90
2023-04-12T20:55:19.789Z,4.47
2023-04-12T20:57:46.902Z,5.87
2023-04-12T21:00:19.008Z,4.77
2023-04-12T21:02:46.803Z,4.50
2023-04-12T21:05:17.279Z,3.83
2023-04-12T21:07:47.158Z,4.60
2023-04-12T21:10:14.907Z,5.33
2023-04-12T21:12:42.903Z,3.77
2023-04-12T21:15:11.802Z,4.57
2023-04-12T21:17:39.379Z,3.93
2023-04-12T21:20:13.836Z,3.83
2023-04-12T21:22:43.087Z,4.77
2023-04-12T21:25:13.840Z,4.60
2023-04-12T21:27:45.222Z,3.40
2023-04-12T21:30:12.865Z,5.77
2023-04-12T21:32:41.101Z,3.87
2023-04-12T21:35:09.986Z,3.97
2023-04-12T21:37:39.219Z,4.43
2023-04-12T21:40:09.428Z,5.60
2023-04-12T21:42:37.315Z,4.77
2023-04-12T21:45:08.723Z,4.03
2023-04-12T21:47:36.155Z,4.30
2023-04-12T21:50:03.803Z,5.53
2023-04-12T21:52:31.024Z,4.70
2023-04-12T21:54:58.171Z,4.30
2023-04-12T21:57:25.364Z,5.37
2023-04-12T21:59:52.411Z,3.67
2023-04-12T22:02:19.527Z,4.13
2023-04-12T22:04:46.923Z,4.53
2023-04-12T22:07:17.687Z,5.33
2023-04-12T22:09:45.653Z,3.70
2023-04-12T22:12:13.405Z,4.63
2023-04-12T22:14:46.515Z,5.73
2023-04-12T22:17:14.806Z,3.83
2023-04-12T22:19:42.147Z,3.80
2023-04-12T22:22:10.883Z,4.93
2023-04-12T22:24:38.822Z,5.27
2023-04-12T22:27:07.018Z,4.30
2023-04-12T22:29:34.604Z,5.30
2023-04-12T22:32:02.386Z,5.40
2023-04-12T22:34:29.519Z,6.00
2023-04-12T22:37:02.845Z,5.00
2023-04-12T22:39:31.767Z,7.00
2023-04-12T22:41:59.579Z,5.40
2023-04-12T22:44:29.168Z,5.40
2023-04-12T22:46:56.879Z,5.30
2023-04-12T22:49:27.364Z,4.87
2023-04-12T22:51:55.356Z,4.50
2023-04-12T22:54:23.638Z,5.03
2023-04-12T22:56:51.612Z,4.77
2023-04-12T22:59:20.231Z,4.30
2023-04-12T23:01:47.522Z,6.27
2023-04-12T23:04:15.978Z,5.03
2023-04-12T23:06:44.242Z,5.50
2023-04-12T23:09:12.401Z,4.70
2023-04-12T23:11:41.068Z,4.23
2023-04-12T23:14:09.206Z,4.87
2023-04-12T23:16:42.495Z,5.40
2023-04-12T23:19:14.667Z,5.37
2023-04-12T23:21:42.954Z,6.60
2023-04-12T23:24:12.133Z,4.60
2023-04-12T23:26:39.430Z,3.97
2023-04-12T23:29:06.495Z,4.07
2023-04-12T23:31:33.822Z,4.53
2023-04-12T23:34:03.848Z,4.47
2023-04-12T23:36:31.329Z,4.27
2023-04-12T23:39:02.203Z,4.90
2023-04-12T23:41:32.421Z,5.23
2023-04-12T23:44:00.675Z,4.03
2023-04-12T23:46:27.979Z,7.10
2023-04-12T23:48:55.170Z,5.13
2023-04-12T23:51:22.812Z,6.20
2023-04-12T23:53:50.420Z,4.40
2023-04-12T23:56:17.528Z,4.23
2023-04-12T23:58:44.671Z,4.30
